sensor_id;sensor_type;location;lat;lon;timestamp;P1;durP1;ratioP1;P2;durP2;ratioP2
15843;SDS011;50807;52.436;13.346;2024-03-25T00:00:07;1.00;;;0.90;;
15843;SDS011;50807;52.436;13.346;2024-03-25T00:00:40;1.20;;;1.10;;
15843;SDS011;50807;52.436;13.346;2024-03-25T00:01:11;1.20;;;1.10;;
15843;SDS011;50807;52.436;13.346;2024-03-25T00:01:42;1.20;;;1.10;;
15843;SDS011;50807;52.436;13.346;2024-03-25T00:02:14;1.20;;;1.10;;
15843;SDS011;50807;52.436;13.346;2024-03-25T00:02:45;1.10;;;0.93;;
15843;SDS011;50807;52.436;13.346;2024-03-25T00:03:15;0.90;;;0.90;;
15843;SDS011;50807;52.436;13.346;2024-03-25T00:03:46;1.30;;;1.20;;
15843;SDS011;50807;52.436;13.346;2024-03-25T00:04:17;1.50;;;1.30;;
15843;SDS011;50807;52.436;13.346;2024-03-25T00:04:48;1.10;;;0.87;;
15843;SDS011;50807;52.436;13.346;2024-03-25T00:05:20;0.90;;;0.90;;
15843;SDS011;50807;52.436;13.346;2024-03-25T00:05:52;1.13;;;1.05;;
15843;SDS011;50807;52.436;13.346;2024-03-25T00:06:23;1.20;;;1.10;;
15843;SDS011;50807;52.436;13.346;2024-03-25T00:06:54;1.00;;;0.97;;
15843;SDS011;50807;52.436;13.346;2024-03-25T00:07:26;0.98;;;0.90;;
15843;SDS011;50807;52.436;13.346;2024-03-25T00:07:57;0.93;;;0.93;;
15843;SDS011;50807;52.436;13.346;2024-03-25T00:08:28;1.50;;;1.40;;
15843;SDS011;50807;52.436;13.346;2024-03-25T00:09:00;1.40;;;1.30;;
15843;SDS011;50807;52.436;13.346;2024-03-25T00:09:31;1.20;;;1.10;;
15843;SDS011;50807;52.436;13.346;2024-03-25T00:10:02;1.03;;;1.03;;
15843;SDS011;50807;52.436;13.346;2024-03-25T00:10:33;1.00;;;1.00;;
15843;SDS011;50807;52.436;13.346;2024-03-25T00:11:04;1.20;;;1.10;;
15843;SDS011;50807;52.436;13.346;2024-03-25T00:11:35;1.20;;;1.10;;
15843;SDS011;50807;52.436;13.346;2024-03-25T00:12:06;1.23;;;1.13;;
15843;SDS011;50807;52.436;13.346;2024-03-25T00:12:37;1.10;;;1.00;;
15843;SDS011;50807;52.436;13.346;2024-03-25T00:13:09;1.30;;;1.20;;
15843;SDS011;50807;52.436;13.346;2024-03-25T00:13:40;1.30;;;1.20;;
15843;SDS011;50807;52.436;13.346;2024-03-25T00:14:11;0.97;;;0.90;;
15843;SDS011;50807;52.436;13.346;2024-03-25T00:14:42;1.57;;;1.20;;
15843;SDS011;50807;52.436;13.346;2024-03-25T00:15:13;1.35;;;1.25;;
15843;SDS011;50807;52.436;13.346;2024-03-25T00:15:44;1.00;;;1.00;;
15843;SDS011;50807;52.436;13.346;2024-03-25T00:16:15;1.30;;;1.20;;
15843;SDS011;50807;52.436;13.346;2024-03-25T00:16:47;1.20;;;1.10;;
15843;SDS011;50807;52.436;13.346;2024-03-25T00:17:18;1.10;;;1.00;;
15843;SDS011;50807;52.436;13.346;2024-03-25T00:17:49;1.40;;;1.30;;
15843;SDS011;50807;52.436;13.346;2024-03-25T00:18:20;1.47;;;1.37;;
15843;SDS011;50807;52.436;13.346;2024-03-25T00:18:51;1.13;;;1.03;;
15843;SDS011;50807;52.436;13.346;2024-03-25T00:19:22;1.30;;;1.20;;
15843;SDS011;50807;52.436;13.346;2024-03-25T00:19:52;1.30;;;1.20;;
15843;SDS011;50807;52.436;13.346;2024-03-25T00:20:24;1.40;;;1.30;;
15843;SDS011;50807;52.436;13.346;2024-03-25T00:20:56;1.35;;;1.25;;
15843;SDS011;50807;52.436;13.346;2024-03-25T00:21:27;1.40;;;1.30;;
15843;SDS011;50807;52.436;13.346;2024-03-25T00:21:58;1.40;;;1.30;;
15843;SDS011;50807;52.436;13.346;2024-03-25T00:22:28;1.57;;;1.47;;
15843;SDS011;50807;52.436;13.346;2024-03-25T00:22:59;1.23;;;1.20;;
15843;SDS011;50807;52.436;13.346;2024-03-25T00:23:30;1.27;;;1.17;;
15843;SDS011;50807;52.436;13.346;2024-03-25T00:24:01;1.30;;;1.23;;
15843;SDS011;50807;52.436;13.346;2024-03-25T00:24:32;1.63;;;1.20;;
15843;SDS011;50807;52.436;13.346;2024-03-25T00:25:03;1.37;;;1.27;;
15843;SDS011;50807;52.436;13.346;2024-03-25T00:25:35;1.77;;;1.30;;
15843;SDS011;50807;52.436;13.346;2024-03-25T00:26:06;2.03;;;1.30;;
15843;SDS011;50807;52.436;13.346;2024-03-25T00:26:36;1.50;;;1.40;;
15843;SDS011;50807;52.436;13.346;2024-03-25T00:27:07;1.40;;;1.30;;
15843;SDS011;50807;52.436;13.346;2024-03-25T00:27:38;1.40;;;1.30;;
15843;SDS011;50807;52.436;13.346;2024-03-25T00:28:09;1.50;;;1.13;;
15843;SDS011;50807;52.436;13.346;2024-03-25T00:28:40;1.90;;;1.60;;
15843;SDS011;50807;52.436;13.346;2024-03-25T00:29:11;1.00;;;1.00;;
15843;SDS011;50807;52.436;13.346;2024-03-25T00:29:42;1.37;;;1.27;;
15843;SDS011;50807;52.436;13.346;2024-03-25T00:30:13;1.25;;;1.15;;
15843;SDS011;50807;52.436;13.346;2024-03-25T00:30:43;1.57;;;1.47;;
15843;SDS011;50807;52.436;13.346;2024-03-25T00:31:14;1.50;;;1.40;;
15843;SDS011;50807;52.436;13.346;2024-03-25T00:31:46;1.30;;;1.27;;
15843;SDS011;50807;52.436;13.346;2024-03-25T00:32:17;1.50;;;1.40;;
15843;SDS011;50807;52.436;13.346;2024-03-25T00:32:47;1.70;;;1.37;;
15843;SDS011;50807;52.436;13.346;2024-03-25T00:33:18;1.20;;;1.10;;
15843;SDS011;50807;52.436;13.346;2024-03-25T00:33:49;1.20;;;1.10;;
15843;SDS011;50807;52.436;13.346;2024-03-25T00:34:20;1.50;;;1.30;;
15843;SDS011;50807;52.436;13.346;2024-03-25T00:34:50;1.30;;;1.20;;
15843;SDS011;50807;52.436;13.346;2024-03-25T00:35:22;1.50;;;1.40;;
15843;SDS011;50807;52.436;13.346;2024-03-25T00:35:54;1.50;;;1.38;;
15843;SDS011;50807;52.436;13.346;2024-03-25T00:36:25;1.70;;;1.60;;
15843;SDS011;50807;52.436;13.346;2024-03-25T00:36:56;1.63;;;1.53;;
15843;SDS011;50807;52.436;13.346;2024-03-25T00:37:27;1.37;;;1.27;;
15843;SDS011;50807;52.436;13.346;2024-03-25T00:37:58;1.50;;;1.40;;
15843;SDS011;50807;52.436;13.346;2024-03-25T00:38:29;1.83;;;1.50;;
15843;SDS011;50807;52.436;13.346;2024-03-25T00:39:00;1.50;;;1.40;;
15843;SDS011;50807;52.436;13.346;2024-03-25T00:39:31;1.50;;;1.40;;
15843;SDS011;50807;52.436;13.346;2024-03-25T00:40:02;1.30;;;1.20;;
15843;SDS011;50807;52.436;13.346;2024-03-25T00:40:34;1.38;;;1.27;;
15843;SDS011;50807;52.436;13.346;2024-03-25T00:41:05;2.00;;;1.30;;
15843;SDS011;50807;52.436;13.346;2024-03-25T00:41:36;1.50;;;1.40;;
15843;SDS011;50807;52.436;13.346;2024-03-25T00:42:06;1.60;;;1.50;;
15843;SDS011;50807;52.436;13.346;2024-03-25T00:42:38;1.50;;;1.40;;
15843;SDS011;50807;52.436;13.346;2024-03-25T00:43:09;1.13;;;1.13;;
15843;SDS011;50807;52.436;13.346;2024-03-25T00:43:40;1.50;;;1.40;;
15843;SDS011;50807;52.436;13.346;2024-03-25T00:44:10;1.50;;;1.37;;
15843;SDS011;50807;52.436;13.346;2024-03-25T00:44:41;1.50;;;1.40;;
15843;SDS011;50807;52.436;13.346;2024-03-25T00:45:12;1.60;;;1.50;;
15843;SDS011;50807;52.436;13.346;2024-03-25T00:45:43;1.37;;;1.27;;
15843;SDS011;50807;52.436;13.346;2024-03-25T00:46:14;1.67;;;1.57;;
15843;SDS011;50807;52.436;13.346;2024-03-25T00:46:45;1.30;;;1.20;;
15843;SDS011;50807;52.436;13.346;2024-03-25T00:47:17;1.65;;;1.55;;
15843;SDS011;50807;52.436;13.346;2024-03-25T00:47:48;1.97;;;1.73;;
15843;SDS011;50807;52.436;13.346;2024-03-25T00:48:18;1.77;;;1.67;;
15843;SDS011;50807;52.436;13.346;2024-03-25T00:48:49;1.50;;;1.40;;
15843;SDS011;50807;52.436;13.346;2024-03-25T00:49:20;2.50;;;1.83;;
15843;SDS011;50807;52.436;13.346;2024-03-25T00:49:51;2.35;;;2.15;;
15843;SDS011;50807;52.436;13.346;2024-03-25T00:50:24;1.70;;;1.60;;
15843;SDS011;50807;52.436;13.346;2024-03-25T00:50:56;1.73;;;1.63;;
15843;SDS011;50807;52.436;13.346;2024-03-25T00:51:26;2.13;;;1.90;;
15843;SDS011;50807;52.436;13.346;2024-03-25T00:51:57;1.67;;;1.57;;
15843;SDS011;50807;52.436;13.346;2024-03-25T00:52:28;1.80;;;1.70;;
15843;SDS011;50807;52.436;13.346;2024-03-25T00:52:59;1.97;;;1.87;;
15843;SDS011;50807;52.436;13.346;2024-03-25T00:53:30;1.63;;;1.53;;
15843;SDS011;50807;52.436;13.346;2024-03-25T00:54:00;1.93;;;1.80;;
15843;SDS011;50807;52.436;13.346;2024-03-25T00:54:33;2.25;;;2.05;;
15843;SDS011;50807;52.436;13.346;2024-03-25T00:55:04;2.03;;;1.70;;
15843;SDS011;50807;52.436;13.346;2024-03-25T00:55:35;1.75;;;1.65;;
15843;SDS011;50807;52.436;13.346;2024-03-25T00:56:06;1.80;;;1.70;;
15843;SDS011;50807;52.436;13.346;2024-03-25T00:56:36;2.50;;;1.70;;
15843;SDS011;50807;52.436;13.346;2024-03-25T00:57:07;1.57;;;1.47;;
15843;SDS011;50807;52.436;13.346;2024-03-25T00:57:38;1.97;;;1.87;;
15843;SDS011;50807;52.436;13.346;2024-03-25T00:58:10;1.65;;;1.55;;
15843;SDS011;50807;52.436;13.346;2024-03-25T00:58:41;2.30;;;2.10;;
15843;SDS011;50807;52.436;13.346;2024-03-25T00:59:11;1.73;;;1.63;;
15843;SDS011;50807;52.436;13.346;2024-03-25T00:59:42;1.97;;;1.87;;
15843;SDS011;50807;52.436;13.346;2024-03-25T01:00:13;2.07;;;1.90;;
15843;SDS011;50807;52.436;13.346;2024-03-25T01:00:45;1.92;;;1.83;;
15843;SDS011;50807;52.436;13.346;2024-03-25T01:01:17;2.00;;;1.90;;
15843;SDS011;50807;52.436;13.346;2024-03-25T01:01:47;1.80;;;1.70;;
15843;SDS011;50807;52.436;13.346;2024-03-25T01:02:18;1.60;;;1.50;;
15843;SDS011;50807;52.436;13.346;2024-03-25T01:02:49;1.83;;;1.73;;
15843;SDS011;50807;52.436;13.346;2024-03-25T01:03:20;3.40;;;1.93;;
15843;SDS011;50807;52.436;13.346;2024-03-25T01:03:50;1.83;;;1.73;;
15843;SDS011;50807;52.436;13.346;2024-03-25T01:04:21;2.00;;;1.90;;
15843;SDS011;50807;52.436;13.346;2024-03-25T01:04:53;1.90;;;1.80;;
15843;SDS011;50807;52.436;13.346;2024-03-25T01:05:25;2.05;;;1.95;;
15843;SDS011;50807;52.436;13.346;2024-03-25T01:05:56;2.05;;;1.95;;
15843;SDS011;50807;52.436;13.346;2024-03-25T01:06:27;1.90;;;1.80;;
15843;SDS011;50807;52.436;13.346;2024-03-25T01:06:58;2.08;;;1.92;;
15843;SDS011;50807;52.436;13.346;2024-03-25T01:07:29;1.73;;;1.63;;
15843;SDS011;50807;52.436;13.346;2024-03-25T01:08:01;1.65;;;1.55;;
15843;SDS011;50807;52.436;13.346;2024-03-25T01:08:31;1.93;;;1.83;;
15843;SDS011;50807;52.436;13.346;2024-03-25T01:09:02;2.00;;;1.90;;
15843;SDS011;50807;52.436;13.346;2024-03-25T01:09:34;1.90;;;1.80;;
15843;SDS011;50807;52.436;13.346;2024-03-25T01:10:05;2.10;;;1.90;;
15843;SDS011;50807;52.436;13.346;2024-03-25T01:10:37;1.73;;;1.63;;
15843;SDS011;50807;52.436;13.346;2024-03-25T01:11:08;1.80;;;1.70;;
15843;SDS011;50807;52.436;13.346;2024-03-25T01:11:39;2.20;;;2.10;;
15843;SDS011;50807;52.436;13.346;2024-03-25T01:12:10;2.30;;;2.10;;
15843;SDS011;50807;52.436;13.346;2024-03-25T01:12:40;1.90;;;1.80;;
15843;SDS011;50807;52.436;13.346;2024-03-25T01:13:11;2.97;;;1.90;;
15843;SDS011;50807;52.436;13.346;2024-03-25T01:13:42;2.23;;;2.10;;
15843;SDS011;50807;52.436;13.346;2024-03-25T01:14:14;2.20;;;2.00;;
15843;SDS011;50807;52.436;13.346;2024-03-25T01:14:44;1.90;;;1.80;;
15843;SDS011;50807;52.436;13.346;2024-03-25T01:15:15;2.10;;;2.00;;
15843;SDS011;50807;52.436;13.346;2024-03-25T01:15:46;2.07;;;1.97;;
15843;SDS011;50807;52.436;13.346;2024-03-25T01:16:17;2.23;;;1.80;;
15843;SDS011;50807;52.436;13.346;2024-03-25T01:16:48;2.03;;;1.93;;
15843;SDS011;50807;52.436;13.346;2024-03-25T01:17:18;1.93;;;1.83;;
15843;SDS011;50807;52.436;13.346;2024-03-25T01:17:49;2.20;;;2.00;;
15843;SDS011;50807;52.436;13.346;2024-03-25T01:18:21;1.90;;;1.80;;
15843;SDS011;50807;52.436;13.346;2024-03-25T01:18:53;2.10;;;2.00;;
15843;SDS011;50807;52.436;13.346;2024-03-25T01:19:23;1.80;;;1.70;;
15843;SDS011;50807;52.436;13.346;2024-03-25T01:19:54;2.40;;;2.20;;
15843;SDS011;50807;52.436;13.346;2024-03-25T01:20:26;1.90;;;1.80;;
15843;SDS011;50807;52.436;13.346;2024-03-25T01:20:57;1.77;;;1.67;;
15843;SDS011;50807;52.436;13.346;2024-03-25T01:21:28;2.13;;;1.93;;
15843;SDS011;50807;52.436;13.346;2024-03-25T01:22:00;2.20;;;1.83;;
15843;SDS011;50807;52.436;13.346;2024-03-25T01:22:30;2.10;;;1.90;;
15843;SDS011;50807;52.436;13.346;2024-03-25T01:23:01;2.00;;;1.90;;
15843;SDS011;50807;52.436;13.346;2024-03-25T01:23:32;2.05;;;1.95;;
15843;SDS011;50807;52.436;13.346;2024-03-25T01:24:03;1.80;;;1.70;;
15843;SDS011;50807;52.436;13.346;2024-03-25T01:24:34;1.70;;;1.60;;
15843;SDS011;50807;52.436;13.346;2024-03-25T01:25:06;1.90;;;1.80;;
15843;SDS011;50807;52.436;13.346;2024-03-25T01:25:38;2.03;;;1.90;;
15843;SDS011;50807;52.436;13.346;2024-03-25T01:26:09;1.85;;;1.75;;
15843;SDS011;50807;52.436;13.346;2024-03-25T01:26:40;1.93;;;1.83;;
15843;SDS011;50807;52.436;13.346;2024-03-25T01:27:11;2.20;;;2.00;;
15843;SDS011;50807;52.436;13.346;2024-03-25T01:27:42;1.70;;;1.60;;
15843;SDS011;50807;52.436;13.346;2024-03-25T01:28:12;2.17;;;1.97;;
15843;SDS011;50807;52.436;13.346;2024-03-25T01:28:43;2.00;;;1.90;;
15843;SDS011;50807;52.436;13.346;2024-03-25T01:29:15;1.98;;;1.70;;
15843;SDS011;50807;52.436;13.346;2024-03-25T01:29:45;1.50;;;1.40;;
15843;SDS011;50807;52.436;13.346;2024-03-25T01:30:17;1.88;;;1.70;;
15843;SDS011;50807;52.436;13.346;2024-03-25T01:30:48;1.60;;;1.50;;
15843;SDS011;50807;52.436;13.346;2024-03-25T01:31:19;2.10;;;1.90;;
15843;SDS011;50807;52.436;13.346;2024-03-25T01:31:50;1.70;;;1.60;;
15843;SDS011;50807;52.436;13.346;2024-03-25T01:32:22;1.92;;;1.80;;
15843;SDS011;50807;52.436;13.346;2024-03-25T01:32:53;1.77;;;1.67;;
15843;SDS011;50807;52.436;13.346;2024-03-25T01:33:23;1.77;;;1.63;;
15843;SDS011;50807;52.436;13.346;2024-03-25T01:33:54;1.80;;;1.40;;
15843;SDS011;50807;52.436;13.346;2024-03-25T01:34:25;1.87;;;1.77;;
15843;SDS011;50807;52.436;13.346;2024-03-25T01:34:56;1.92;;;1.77;;
15843;SDS011;50807;52.436;13.346;2024-03-25T01:35:28;1.90;;;1.80;;
15843;SDS011;50807;52.436;13.346;2024-03-25T01:36:00;1.80;;;1.70;;
15843;SDS011;50807;52.436;13.346;2024-03-25T01:36:31;1.90;;;1.80;;
15843;SDS011;50807;52.436;13.346;2024-03-25T01:37:02;1.90;;;1.80;;
15843;SDS011;50807;52.436;13.346;2024-03-25T01:37:33;1.75;;;1.65;;
15843;SDS011;50807;52.436;13.346;2024-03-25T01:38:04;1.80;;;1.63;;
15843;SDS011;50807;52.436;13.346;2024-03-25T01:38:35;1.70;;;1.40;;
15843;SDS011;50807;52.436;13.346;2024-03-25T01:39:05;1.63;;;1.53;;
15843;SDS011;50807;52.436;13.346;2024-03-25T01:39:38;1.60;;;1.50;;
15843;SDS011;50807;52.436;13.346;2024-03-25T01:40:08;1.70;;;1.60;;
15843;SDS011;50807;52.436;13.346;2024-03-25T01:40:40;2.22;;;1.48;;
15843;SDS011;50807;52.436;13.346;2024-03-25T01:41:11;1.40;;;1.30;;
15843;SDS011;50807;52.436;13.346;2024-03-25T01:41:45;1.70;;;1.60;;
15843;SDS011;50807;52.436;13.346;2024-03-25T01:42:15;1.80;;;1.70;;
15843;SDS011;50807;52.436;13.346;2024-03-25T01:42:54;1.80;;;1.52;;
15843;SDS011;50807;52.436;13.346;2024-03-25T01:43:26;1.77;;;1.67;;
15843;SDS011;50807;52.436;13.346;2024-03-25T01:43:56;1.40;;;1.30;;
15843;SDS011;50807;52.436;13.346;2024-03-25T01:44:27;1.50;;;1.40;;
15843;SDS011;50807;52.436;13.346;2024-03-25T01:44:58;1.60;;;1.50;;
15843;SDS011;50807;52.436;13.346;2024-03-25T01:45:30;1.50;;;1.40;;
15843;SDS011;50807;52.436;13.346;2024-03-25T01:46:03;1.50;;;1.40;;
15843;SDS011;50807;52.436;13.346;2024-03-25T01:46:35;1.88;;;1.40;;
15843;SDS011;50807;52.436;13.346;2024-03-25T01:47:06;1.50;;;1.40;;
15843;SDS011;50807;52.436;13.346;2024-03-25T01:47:37;1.93;;;1.40;;
15843;SDS011;50807;52.436;13.346;2024-03-25T01:48:09;1.50;;;1.40;;
15843;SDS011;50807;52.436;13.346;2024-03-25T01:48:43;1.35;;;1.25;;
15843;SDS011;50807;52.436;13.346;2024-03-25T01:49:14;1.65;;;1.55;;
15843;SDS011;50807;52.436;13.346;2024-03-25T01:49:46;2.03;;;1.70;;
15843;SDS011;50807;52.436;13.346;2024-03-25T01:50:19;1.33;;;1.23;;
15843;SDS011;50807;52.436;13.346;2024-03-25T01:50:53;1.30;;;1.20;;
15843;SDS011;50807;52.436;13.346;2024-03-25T01:51:24;1.70;;;1.60;;
15843;SDS011;50807;52.436;13.346;2024-03-25T01:51:55;1.35;;;1.25;;
15843;SDS011;50807;52.436;13.346;2024-03-25T01:52:28;1.80;;;1.50;;
15843;SDS011;50807;52.436;13.346;2024-03-25T01:52:59;1.45;;;1.35;;
15843;SDS011;50807;52.436;13.346;2024-03-25T01:53:32;2.50;;;1.70;;
15843;SDS011;50807;52.436;13.346;2024-03-25T01:54:03;1.38;;;1.27;;
15843;SDS011;50807;52.436;13.346;2024-03-25T01:54:35;1.58;;;1.48;;
15843;SDS011;50807;52.436;13.346;2024-03-25T01:55:06;1.43;;;1.30;;
15843;SDS011;50807;52.436;13.346;2024-03-25T01:55:42;1.90;;;1.70;;
15843;SDS011;50807;52.436;13.346;2024-03-25T01:56:13;1.57;;;1.47;;
15843;SDS011;50807;52.436;13.346;2024-03-25T01:56:46;2.05;;;1.92;;
15843;SDS011;50807;52.436;13.346;2024-03-25T01:57:18;1.67;;;1.58;;
15843;SDS011;50807;52.436;13.346;2024-03-25T01:57:50;1.33;;;1.23;;
15843;SDS011;50807;52.436;13.346;2024-03-25T01:58:22;1.85;;;1.75;;
15843;SDS011;50807;52.436;13.346;2024-03-25T01:58:53;1.83;;;1.58;;
15843;SDS011;50807;52.436;13.346;2024-03-25T01:59:24;1.95;;;1.73;;
15843;SDS011;50807;52.436;13.346;2024-03-25T01:59:56;1.77;;;1.50;;
15843;SDS011;50807;52.436;13.346;2024-03-25T02:00:28;1.65;;;1.55;;
15843;SDS011;50807;52.436;13.346;2024-03-25T02:00:59;1.92;;;1.83;;
15843;SDS011;50807;52.436;13.346;2024-03-25T02:01:31;1.88;;;1.70;;
15843;SDS011;50807;52.436;13.346;2024-03-25T02:02:02;1.87;;;1.67;;
15843;SDS011;50807;52.436;13.346;2024-03-25T02:02:34;2.53;;;1.80;;
15843;SDS011;50807;52.436;13.346;2024-03-25T02:03:07;1.95;;;1.83;;
15843;SDS011;50807;52.436;13.346;2024-03-25T02:03:38;2.15;;;1.95;;
15843;SDS011;50807;52.436;13.346;2024-03-25T02:04:10;1.70;;;1.60;;
15843;SDS011;50807;52.436;13.346;2024-03-25T02:04:42;1.95;;;1.77;;
15843;SDS011;50807;52.436;13.346;2024-03-25T02:05:14;2.10;;;1.90;;
15843;SDS011;50807;52.436;13.346;2024-03-25T02:05:46;1.95;;;1.85;;
15843;SDS011;50807;52.436;13.346;2024-03-25T02:06:22;2.00;;;1.70;;
15843;SDS011;50807;52.436;13.346;2024-03-25T02:06:58;1.80;;;1.70;;
15843;SDS011;50807;52.436;13.346;2024-03-25T02:07:29;2.08;;;1.80;;
15843;SDS011;50807;52.436;13.346;2024-03-25T02:08:01;1.83;;;1.73;;
15843;SDS011;50807;52.436;13.346;2024-03-25T02:08:34;1.50;;;1.33;;
15843;SDS011;50807;52.436;13.346;2024-03-25T02:09:05;1.95;;;1.85;;
15843;SDS011;50807;52.436;13.346;2024-03-25T02:09:36;1.70;;;1.60;;
15843;SDS011;50807;52.436;13.346;2024-03-25T02:10:07;2.00;;;1.80;;
15843;SDS011;50807;52.436;13.346;2024-03-25T02:10:40;2.00;;;1.90;;
15843;SDS011;50807;52.436;13.346;2024-03-25T02:11:13;2.17;;;1.65;;
15843;SDS011;50807;52.436;13.346;2024-03-25T02:11:45;2.30;;;1.67;;
15843;SDS011;50807;52.436;13.346;2024-03-25T02:12:16;2.17;;;1.65;;
15843;SDS011;50807;52.436;13.346;2024-03-25T02:12:47;1.65;;;1.55;;
15843;SDS011;50807;52.436;13.346;2024-03-25T02:13:19;2.70;;;1.70;;
15843;SDS011;50807;52.436;13.346;2024-03-25T02:13:51;1.80;;;1.70;;
15843;SDS011;50807;52.436;13.346;2024-03-25T02:14:23;1.92;;;1.83;;
15843;SDS011;50807;52.436;13.346;2024-03-25T02:14:54;1.90;;;1.80;;
15843;SDS011;50807;52.436;13.346;2024-03-25T02:15:25;2.00;;;1.88;;
15843;SDS011;50807;52.436;13.346;2024-03-25T02:15:56;2.00;;;1.90;;
15843;SDS011;50807;52.436;13.346;2024-03-25T02:16:27;2.25;;;2.05;;
15843;SDS011;50807;52.436;13.346;2024-03-25T02:16:58;2.00;;;1.80;;
15843;SDS011;50807;52.436;13.346;2024-03-25T02:17:29;2.43;;;2.23;;
15843;SDS011;50807;52.436;13.346;2024-03-25T02:17:59;1.90;;;1.80;;
15843;SDS011;50807;52.436;13.346;2024-03-25T02:18:31;2.30;;;2.10;;
15843;SDS011;50807;52.436;13.346;2024-03-25T02:19:02;1.77;;;1.67;;
15843;SDS011;50807;52.436;13.346;2024-03-25T02:19:33;2.10;;;1.97;;
15843;SDS011;50807;52.436;13.346;2024-03-25T02:20:07;2.70;;;1.88;;
15843;SDS011;50807;52.436;13.346;2024-03-25T02:20:40;2.00;;;1.80;;
15843;SDS011;50807;52.436;13.346;2024-03-25T02:21:10;2.43;;;2.17;;
15843;SDS011;50807;52.436;13.346;2024-03-25T02:21:43;2.20;;;2.00;;
15843;SDS011;50807;52.436;13.346;2024-03-25T02:22:14;2.45;;;2.25;;
15843;SDS011;50807;52.436;13.346;2024-03-25T02:22:45;2.40;;;2.20;;
15843;SDS011;50807;52.436;13.346;2024-03-25T02:23:16;2.63;;;2.13;;
15843;SDS011;50807;52.436;13.346;2024-03-25T02:23:47;3.10;;;2.47;;
15843;SDS011;50807;52.436;13.346;2024-03-25T02:24:22;2.63;;;2.42;;
15843;SDS011;50807;52.436;13.346;2024-03-25T02:24:56;2.40;;;2.20;;
15843;SDS011;50807;52.436;13.346;2024-03-25T02:25:29;2.10;;;1.90;;
15843;SDS011;50807;52.436;13.346;2024-03-25T02:26:04;2.28;;;2.08;;
15843;SDS011;50807;52.436;13.346;2024-03-25T02:26:35;2.72;;;2.17;;
15843;SDS011;50807;52.436;13.346;2024-03-25T02:27:06;2.37;;;2.17;;
15843;SDS011;50807;52.436;13.346;2024-03-25T02:27:38;2.35;;;2.15;;
15843;SDS011;50807;52.436;13.346;2024-03-25T02:28:09;2.40;;;2.20;;
15843;SDS011;50807;52.436;13.346;2024-03-25T02:28:40;2.43;;;2.23;;
15843;SDS011;50807;52.436;13.346;2024-03-25T02:29:11;2.22;;;1.95;;
15843;SDS011;50807;52.436;13.346;2024-03-25T02:29:42;2.23;;;2.10;;
15843;SDS011;50807;52.436;13.346;2024-03-25T02:30:14;2.33;;;2.13;;
15843;SDS011;50807;52.436;13.346;2024-03-25T02:30:46;2.72;;;2.53;;
15843;SDS011;50807;52.436;13.346;2024-03-25T02:31:17;2.17;;;1.98;;
15843;SDS011;50807;52.436;13.346;2024-03-25T02:31:48;2.63;;;2.43;;
15843;SDS011;50807;52.436;13.346;2024-03-25T02:32:19;3.10;;;2.53;;
15843;SDS011;50807;52.436;13.346;2024-03-25T02:32:50;2.70;;;2.50;;
15843;SDS011;50807;52.436;13.346;2024-03-25T02:33:20;2.30;;;2.10;;
15843;SDS011;50807;52.436;13.346;2024-03-25T02:33:52;2.55;;;2.35;;
15843;SDS011;50807;52.436;13.346;2024-03-25T02:34:23;2.67;;;2.47;;
15843;SDS011;50807;52.436;13.346;2024-03-25T02:34:54;2.97;;;2.50;;
15843;SDS011;50807;52.436;13.346;2024-03-25T02:35:26;2.30;;;2.10;;
15843;SDS011;50807;52.436;13.346;2024-03-25T02:35:57;2.40;;;2.20;;
15843;SDS011;50807;52.436;13.346;2024-03-25T02:36:28;2.50;;;2.30;;
15843;SDS011;50807;52.436;13.346;2024-03-25T02:37:00;2.60;;;2.40;;
15843;SDS011;50807;52.436;13.346;2024-03-25T02:37:31;2.53;;;2.33;;
15843;SDS011;50807;52.436;13.346;2024-03-25T02:38:03;2.45;;;2.15;;
15843;SDS011;50807;52.436;13.346;2024-03-25T02:38:34;2.30;;;2.20;;
15843;SDS011;50807;52.436;13.346;2024-03-25T02:39:05;2.80;;;2.30;;
15843;SDS011;50807;52.436;13.346;2024-03-25T02:39:36;3.10;;;2.80;;
15843;SDS011;50807;52.436;13.346;2024-03-25T02:40:08;2.10;;;2.00;;
15843;SDS011;50807;52.436;13.346;2024-03-25T02:40:39;2.03;;;1.92;;
15843;SDS011;50807;52.436;13.346;2024-03-25T02:41:12;2.58;;;2.38;;
15843;SDS011;50807;52.436;13.346;2024-03-25T02:41:43;2.58;;;2.33;;
15843;SDS011;50807;52.436;13.346;2024-03-25T02:42:14;2.87;;;2.47;;
15843;SDS011;50807;52.436;13.346;2024-03-25T02:42:45;2.40;;;2.20;;
15843;SDS011;50807;52.436;13.346;2024-03-25T02:43:17;2.72;;;2.33;;
15843;SDS011;50807;52.436;13.346;2024-03-25T02:43:51;2.83;;;2.47;;
15843;SDS011;50807;52.436;13.346;2024-03-25T02:44:22;2.83;;;2.38;;
15843;SDS011;50807;52.436;13.346;2024-03-25T02:44:53;2.88;;;2.55;;
15843;SDS011;50807;52.436;13.346;2024-03-25T02:45:25;2.60;;;2.40;;
15843;SDS011;50807;52.436;13.346;2024-03-25T02:45:57;2.53;;;2.22;;
15843;SDS011;50807;52.436;13.346;2024-03-25T02:46:27;2.57;;;2.37;;
15843;SDS011;50807;52.436;13.346;2024-03-25T02:46:59;2.53;;;2.33;;
15843;SDS011;50807;52.436;13.346;2024-03-25T02:47:30;3.10;;;2.42;;
15843;SDS011;50807;52.436;13.346;2024-03-25T02:48:01;2.40;;;2.20;;
15843;SDS011;50807;52.436;13.346;2024-03-25T02:48:31;2.40;;;2.20;;
15843;SDS011;50807;52.436;13.346;2024-03-25T02:49:03;2.55;;;2.35;;
15843;SDS011;50807;52.436;13.346;2024-03-25T02:49:34;2.40;;;2.20;;
15843;SDS011;50807;52.436;13.346;2024-03-25T02:50:05;2.40;;;2.15;;
15843;SDS011;50807;52.436;13.346;2024-03-25T02:50:37;2.30;;;2.10;;
15843;SDS011;50807;52.436;13.346;2024-03-25T02:51:08;2.23;;;2.03;;
15843;SDS011;50807;52.436;13.346;2024-03-25T02:51:39;2.83;;;2.27;;
15843;SDS011;50807;52.436;13.346;2024-03-25T02:52:09;3.13;;;2.10;;
15843;SDS011;50807;52.436;13.346;2024-03-25T02:52:40;2.87;;;2.60;;
15843;SDS011;50807;52.436;13.346;2024-03-25T02:53:12;2.25;;;2.00;;
15843;SDS011;50807;52.436;13.346;2024-03-25T02:53:42;2.57;;;2.37;;
15843;SDS011;50807;52.436;13.346;2024-03-25T02:54:13;2.37;;;2.17;;
15843;SDS011;50807;52.436;13.346;2024-03-25T02:54:44;1.67;;;1.58;;
15843;SDS011;50807;52.436;13.346;2024-03-25T02:55:15;3.25;;;2.38;;
15843;SDS011;50807;52.436;13.346;2024-03-25T02:55:47;2.70;;;2.50;;
15843;SDS011;50807;52.436;13.346;2024-03-25T02:56:19;2.00;;;1.80;;
15843;SDS011;50807;52.436;13.346;2024-03-25T02:56:50;2.42;;;2.22;;
15843;SDS011;50807;52.436;13.346;2024-03-25T02:57:21;2.43;;;2.17;;
15843;SDS011;50807;52.436;13.346;2024-03-25T02:57:52;2.28;;;2.08;;
15843;SDS011;50807;52.436;13.346;2024-03-25T02:58:22;1.80;;;1.70;;
15843;SDS011;50807;52.436;13.346;2024-03-25T02:58:53;1.83;;;1.73;;
15843;SDS011;50807;52.436;13.346;2024-03-25T02:59:25;2.03;;;1.83;;
15843;SDS011;50807;52.436;13.346;2024-03-25T02:59:55;1.90;;;1.80;;
15843;SDS011;50807;52.436;13.346;2024-03-25T03:00:26;1.70;;;1.60;;
15843;SDS011;50807;52.436;13.346;2024-03-25T03:00:57;2.23;;;2.03;;
15843;SDS011;50807;52.436;13.346;2024-03-25T03:01:28;1.80;;;1.70;;
15843;SDS011;50807;52.436;13.346;2024-03-25T03:01:58;1.63;;;1.53;;
15843;SDS011;50807;52.436;13.346;2024-03-25T03:02:29;1.80;;;1.70;;
15843;SDS011;50807;52.436;13.346;2024-03-25T03:03:01;1.77;;;1.60;;
15843;SDS011;50807;52.436;13.346;2024-03-25T03:03:32;1.80;;;1.70;;
15843;SDS011;50807;52.436;13.346;2024-03-25T03:04:03;2.00;;;1.80;;
15843;SDS011;50807;52.436;13.346;2024-03-25T03:04:34;1.63;;;1.52;;
15843;SDS011;50807;52.436;13.346;2024-03-25T03:05:05;1.50;;;1.40;;
15843;SDS011;50807;52.436;13.346;2024-03-25T03:05:36;1.70;;;1.58;;